Terminal Aerodrome Forecast
Issued by NWS Topeka, KS

Home | Current Version | Previous Version | Text Only | Print | Product List | Glossary Off
Versions: 1 2 3 4 5 6 7 8 9 10 11 12 13 14

582
FTUS43 KTOP 181133
TAFTOP
TAF
KTOP 181133Z 1812/1912 19007KT P6SM SCT250
     FM181800 18011KT P6SM SCT250
     FM190200 17007KT P6SM SCT200=

USA.gov is the U.S. government's official web portal to all federal, state and local government web resources and services.